Time;durP1;ratioP1;P1;durP2;ratioP2;P2;SDS_P1;SDS_P2;PMS_P1;PMS_P2;Temp;Humidity;BMP_temperature;BMP_pressure;BME280_temperature;BME280_humidity;BME280_pressure;Samples;Min_cycle;Max_cycle;Signal;HPM_P1;HPM_P2
2023/05/22 00:01:20;;;;;;;15.00;13.60;;;;;;;16.37;100.00;99700.25;5001859;28;20343;-63
2023/05/22 00:03:45;;;;;;;14.47;13.20;;;;;;;16.33;100.00;99696.25;5003242;28;20183;-63
2023/05/22 00:06:11;;;;;;;14.03;12.73;;;;;;;16.25;100.00;99691.72;4991796;28;20271;-63
2023/05/22 00:08:36;;;;;;;14.67;13.27;;;;;;;16.24;100.00;99694.47;4991848;28;20227;-63
2023/05/22 00:11:02;;;;;;;14.33;13.13;;;;;;;16.23;100.00;99700.59;4997830;28;20225;-63
2023/05/22 00:13:27;;;;;;;16.40;14.87;;;;;;;16.16;100.00;99694.28;5007597;28;20238;-64
2023/05/22 00:15:53;;;;;;;15.17;13.57;;;;;;;16.07;100.00;99688.09;4991276;28;20573;-65
2023/05/22 00:18:18;;;;;;;15.50;14.03;;;;;;;16.09;100.00;99691.41;4992211;28;20179;-63
2023/05/22 00:20:45;;;;;;;14.90;13.60;;;;;;;16.02;100.00;99687.66;4990245;28;20305;-63
2023/05/22 00:23:11;;;;;;;16.40;14.80;;;;;;;16.01;100.00;99686.03;5003621;28;20659;-64
2023/05/22 00:25:36;;;;;;;16.17;14.67;;;;;;;15.96;100.00;99679.47;4990196;28;20235;-63
2023/05/22 00:28:01;;;;;;;15.83;14.43;;;;;;;15.89;100.00;99683.50;4991573;28;20242;-64
2023/05/22 00:30:27;;;;;;;14.97;13.57;;;;;;;15.87;100.00;99684.59;4988090;28;20234;-63
2023/05/22 00:32:52;;;;;;;14.73;13.33;;;;;;;15.84;100.00;99680.50;5017287;28;20686;-62
2023/05/22 00:35:17;;;;;;;16.17;14.70;;;;;;;15.78;100.00;99681.78;4991395;28;20187;-62
2023/05/22 00:37:44;;;;;;;16.23;14.73;;;;;;;15.75;100.00;99683.78;4990635;28;20183;-63
2023/05/22 00:40:11;;;;;;;15.10;13.70;;;;;;;15.73;100.00;99683.13;4982487;28;20257;-63
2023/05/22 00:42:36;;;;;;;16.20;14.60;;;;;;;15.75;100.00;99683.78;5010673;28;20274;-62
2023/05/22 00:45:02;;;;;;;14.53;13.27;;;;;;;15.80;100.00;99679.03;4991233;28;20676;-62
2023/05/22 00:47:27;;;;;;;16.03;14.53;;;;;;;15.70;100.00;99680.78;4992084;28;20246;-62
2023/05/22 00:49:53;;;;;;;15.60;14.00;;;;;;;15.60;100.00;99685.88;4991655;28;20294;-63
2023/05/22 00:52:18;;;;;;;16.33;14.87;;;;;;;15.60;100.00;99688.47;5013211;28;20214;-62
2023/05/22 00:54:44;;;;;;;15.80;14.40;;;;;;;15.65;100.00;99679.38;4992092;28;20189;-62
2023/05/22 00:57:10;;;;;;;15.87;14.33;;;;;;;15.58;100.00;99685.19;4994966;28;20194;-62
2023/05/22 00:59:35;;;;;;;15.13;13.73;;;;;;;15.59;100.00;99679.06;4995549;28;20188;-62
2023/05/22 01:02:01;;;;;;;15.83;14.33;;;;;;;15.63;100.00;99681.28;5016655;28;20351;-62
2023/05/22 01:04:27;;;;;;;15.43;14.03;;;;;;;15.61;100.00;99679.75;4995487;28;20191;-62
2023/05/22 01:06:53;;;;;;;16.83;15.30;;;;;;;15.60;100.00;99678.13;4994999;28;20191;-62
2023/05/22 01:09:19;;;;;;;17.20;15.47;;;;;;;15.57;100.00;99684.38;4995242;28;20251;-62
2023/05/22 01:12:12;;;;;;;16.23;14.83;;;;;;;15.51;100.00;99687.47;5012157;28;20262;-62
2023/05/22 01:15:12;;;;;;;16.40;14.90;;;;;;;15.48;100.00;99682.56;4985307;28;20337;-63
2023/05/22 01:17:51;;;;;;;17.07;15.43;;;;;;;15.51;100.00;99684.88;4982770;28;20187;-62
2023/05/22 01:20:47;;;;;;;17.57;15.87;;;;;;;15.41;100.00;99681.41;4988646;28;20195;-63
2023/05/22 01:23:20;;;;;;;17.63;16.03;;;;;;;15.45;100.00;99686.19;5014897;28;20242;-63
2023/05/22 01:26:04;;;;;;;15.67;14.23;;;;;;;15.41;100.00;99686.59;4993000;28;20184;-62
2023/05/22 01:28:48;;;;;;;15.67;14.37;;;;;;;15.30;100.00;99674.50;4994455;28;20330;-62
2023/05/22 01:31:16;;;;;;;16.47;14.87;;;;;;;15.33;100.00;99682.00;5003941;28;20759;-62
2023/05/22 01:33:50;;;;;;;16.90;15.43;;;;;;;15.31;100.00;99691.69;5006657;28;20216;-63
2023/05/22 01:36:19;;;;;;;16.93;15.50;;;;;;;15.31;100.00;99687.31;4994178;28;20324;-63
2023/05/22 01:38:44;;;;;;;16.73;15.27;;;;;;;15.29;100.00;99691.81;4982515;28;20269;-63
2023/05/22 01:41:11;;;;;;;16.17;14.70;;;;;;;15.30;100.00;99692.63;5002337;28;20291;-64
2023/05/22 01:43:36;;;;;;;16.60;15.10;;;;;;;15.31;100.00;99686.50;5008626;28;20639;-64
2023/05/22 01:46:02;;;;;;;17.60;16.00;;;;;;;15.32;100.00;99693.34;4993798;28;20254;-63
2023/05/22 01:48:28;;;;;;;17.43;15.90;;;;;;;15.31;100.00;99695.09;4994686;28;20212;-63
2023/05/22 01:50:54;;;;;;;17.37;15.77;;;;;;;15.31;100.00;99686.50;4997850;28;20663;-63
2023/05/22 01:53:30;;;;;;;17.10;15.50;;;;;;;15.21;100.00;99686.44;5012049;28;20195;-62
2023/05/22 01:56:18;;;;;;;16.40;14.80;;;;;;;15.15;100.00;99682.56;4993484;28;20183;-63
2023/05/22 01:59:17;;;;;;;16.90;15.40;;;;;;;15.09;100.00;99684.81;4994640;28;20203;-63
2023/05/22 02:01:43;;;;;;;17.90;16.23;;;;;;;15.20;100.00;99684.78;5008591;28;20257;-63
2023/05/22 02:04:10;;;;;;;16.57;14.97;;;;;;;15.20;100.00;99689.16;4998661;28;20191;-63
2023/05/22 02:06:37;;;;;;;18.17;16.47;;;;;;;15.17;100.00;99692.81;4994159;28;20183;-62
2023/05/22 02:09:02;;;;;;;17.27;15.77;;;;;;;15.19;100.00;99687.50;4993706;28;20232;-63
2023/05/22 02:11:32;;;;;;;17.40;15.87;;;;;;;15.15;100.00;99692.91;5006985;28;20229;-63
2023/05/22 02:13:57;;;;;;;17.70;15.97;;;;;;;15.19;100.00;99690.09;5001504;28;20194;-63
2023/05/22 02:16:23;;;;;;;17.97;16.40;;;;;;;15.13;100.00;99697.41;4993571;28;20297;-63
2023/05/22 02:18:50;;;;;;;17.70;15.97;;;;;;;15.08;100.00;99685.75;4993640;28;20266;-63
2023/05/22 02:21:15;;;;;;;18.20;16.60;;;;;;;15.05;100.00;99689.44;5003202;28;20222;-63
2023/05/22 02:23:40;;;;;;;17.73;16.03;;;;;;;14.92;100.00;99687.00;4998814;28;20705;-62
2023/05/22 02:26:06;;;;;;;17.37;15.67;;;;;;;14.89;100.00;99694.19;4993334;28;20270;-64
2023/05/22 02:28:32;;;;;;;17.97;16.17;;;;;;;14.94;100.00;99685.09;4993457;28;20294;-63
2023/05/22 02:30:57;;;;;;;17.43;15.93;;;;;;;14.93;100.00;99688.63;4998484;28;20236;-63
2023/05/22 02:33:22;;;;;;;18.60;16.77;;;;;;;14.91;100.00;99694.88;5000921;28;20588;-63
2023/05/22 02:35:47;;;;;;;19.07;17.27;;;;;;;14.93;100.00;99690.41;4993443;28;20680;-63
2023/05/22 02:38:13;;;;;;;19.03;17.37;;;;;;;14.89;100.00;99687.22;4993464;28;20192;-63
2023/05/22 02:40:38;;;;;;;18.70;16.70;;;;;;;14.85;100.00;99685.84;4993420;28;20230;-63
2023/05/22 02:43:03;;;;;;;18.73;17.03;;;;;;;14.84;100.00;99685.00;5003490;28;20187;-62
2023/05/22 02:45:30;;;;;;;17.80;16.07;;;;;;;14.92;100.00;99684.41;4993092;28;20553;-62
2023/05/22 02:47:55;;;;;;;21.03;19.17;;;;;;;14.88;100.00;99687.34;4991660;28;20184;-62
2023/05/22 02:50:20;;;;;;;20.17;18.43;;;;;;;14.91;100.00;99684.50;4988169;28;20234;-63
2023/05/22 02:52:46;;;;;;;19.50;17.80;;;;;;;14.87;100.00;99680.53;5019975;28;20313;-62
2023/05/22 02:55:11;;;;;;;18.93;17.13;;;;;;;14.77;100.00;99686.44;4993041;28;20175;-63
2023/05/22 02:57:37;;;;;;;20.10;18.13;;;;;;;14.72;100.00;99679.97;4993103;28;20192;-63
2023/05/22 03:00:05;;;;;;;18.30;16.70;;;;;;;14.72;100.00;99680.78;4992455;28;20187;-63
2023/05/22 03:02:31;;;;;;;20.30;18.43;;;;;;;14.69;100.00;99686.22;4996593;28;20216;-63
2023/05/22 03:04:59;;;;;;;19.50;17.60;;;;;;;14.68;100.00;99681.97;4992966;28;20183;-63
2023/05/22 03:07:25;;;;;;;19.77;17.97;;;;;;;14.64;100.00;99683.94;4992924;28;20176;-62
2023/05/22 03:09:51;;;;;;;20.23;18.20;;;;;;;14.65;100.00;99685.63;4992482;28;20817;-64
2023/05/22 03:12:16;;;;;;;20.53;18.60;;;;;;;14.59;100.00;99686.09;5014537;28;20217;-62
2023/05/22 03:14:42;;;;;;;19.53;17.73;;;;;;;14.56;100.00;99683.72;4993005;28;20191;-63
2023/05/22 03:17:07;;;;;;;20.77;19.03;;;;;;;14.49;100.00;99688.56;5013730;28;20233;-63
2023/05/22 03:19:32;;;;;;;20.27;18.33;;;;;;;14.45;100.00;99691.50;4992526;28;20187;-63
2023/05/22 03:21:57;;;;;;;22.27;20.07;;;;;;;14.48;100.00;99691.28;5012966;28;20248;-63
2023/05/22 03:24:23;;;;;;;21.27;19.17;;;;;;;14.47;100.00;99689.63;4994268;28;20187;-63
2023/05/22 03:26:48;;;;;;;20.50;18.63;;;;;;;14.44;100.00;99688.09;4992183;28;20179;-63
2023/05/22 03:29:13;;;;;;;21.27;19.37;;;;;;;14.43;100.00;99694.22;4991425;28;20195;-63
2023/05/22 03:31:39;;;;;;;21.20;19.40;;;;;;;14.43;100.00;99690.81;4972786;28;20657;-63
2023/05/22 03:34:04;;;;;;;19.93;18.10;;;;;;;14.39;100.00;99690.22;4988959;28;20603;-63
2023/05/22 03:36:32;;;;;;;20.73;18.67;;;;;;;14.41;100.00;99690.09;4992104;28;20646;-63
2023/05/22 03:38:58;;;;;;;21.73;19.73;;;;;;;14.32;100.00;99689.03;4991723;28;20194;-62
2023/05/22 03:41:23;;;;;;;21.40;19.40;;;;;;;14.23;100.00;99697.50;5003850;28;20222;-63
2023/05/22 03:43:48;;;;;;;21.10;19.17;;;;;;;14.31;100.00;99689.97;5002748;28;20191;-63
2023/05/22 03:46:14;;;;;;;20.50;18.40;;;;;;;14.35;100.00;99691.38;4991508;28;20200;-63
2023/05/22 03:48:39;;;;;;;20.77;18.80;;;;;;;14.36;100.00;99693.03;4992616;28;20273;-63
2023/05/22 03:51:05;;;;;;;20.67;18.77;;;;;;;14.39;100.00;99694.56;4999101;28;20713;-63
2023/05/22 03:53:30;;;;;;;21.93;19.90;;;;;;;14.45;100.00;99700.09;5007253;28;20203;-64
2023/05/22 03:55:58;;;;;;;20.40;18.50;;;;;;;14.42;100.00;99694.34;4991525;28;20180;-64
2023/05/22 03:58:24;;;;;;;20.17;18.37;;;;;;;14.48;100.00;99699.03;4992427;28;20215;-63
2023/05/22 04:00:53;;;;;;;21.03;18.93;;;;;;;14.50;100.00;99695.38;4990305;28;20233;-63
2023/05/22 04:03:18;;;;;;;20.87;18.97;;;;;;;14.57;100.00;99695.72;5010114;28;20191;-64
2023/05/22 04:05:45;;;;;;;21.27;19.20;;;;;;;14.60;100.00;99689.47;4991863;28;20670;-63
2023/05/22 04:08:10;;;;;;;20.30;18.37;;;;;;;14.67;100.00;99688.94;4978729;28;20647;-63
2023/05/22 04:10:37;;;;;;;20.87;18.90;;;;;;;14.67;100.00;99688.94;4991024;28;20222;-63
2023/05/22 04:13:02;;;;;;;21.37;19.17;;;;;;;14.74;100.00;99691.84;5014149;28;20180;-63
2023/05/22 04:15:28;;;;;;;20.57;18.43;;;;;;;14.80;100.00;99693.16;4991561;28;20601;-62
2023/05/22 04:17:53;;;;;;;18.93;17.33;;;;;;;14.91;100.00;99693.13;4992137;28;20221;-63
2023/05/22 04:20:21;;;;;;;19.73;17.93;;;;;;;15.01;100.00;99694.03;4985358;28;20550;-63
2023/05/22 04:22:47;;;;;;;20.47;18.43;;;;;;;15.09;100.00;99700.38;5018430;28;20635;-63
2023/05/22 04:25:13;;;;;;;21.17;19.10;;;;;;;15.17;100.00;99701.41;4991976;28;20631;-63
2023/05/22 04:27:38;;;;;;;20.63;18.60;;;;;;;15.24;100.00;99696.53;4991940;28;20230;-62
2023/05/22 04:30:06;;;;;;;20.13;17.60;;;;;;;15.39;100.00;99699.66;4982554;28;20242;-63
2023/05/22 04:32:31;;;;;;;20.17;18.13;;;;;;;15.32;100.00;99701.13;5026151;28;20198;-63
2023/05/22 04:34:59;;;;;;;18.93;17.13;;;;;;;15.48;100.00;99711.88;4995764;28;20601;-64
2023/05/22 04:37:27;;;;;;;18.70;16.83;;;;;;;15.57;100.00;99715.47;4988293;28;20192;-63
2023/05/22 04:39:56;;;;;;;19.03;17.33;;;;;;;15.77;100.00;99718.22;4991723;28;20295;-64
2023/05/22 04:42:24;;;;;;;19.77;17.97;;;;;;;15.95;100.00;99721.91;5017367;28;20242;-63
2023/05/22 04:44:51;;;;;;;18.20;16.57;;;;;;;16.15;100.00;99719.41;4994442;28;20180;-63
2023/05/22 04:47:18;;;;;;;19.30;17.43;;;;;;;16.08;100.00;99721.69;4983484;28;20215;-62
2023/05/22 04:49:44;;;;;;;18.37;16.67;;;;;;;16.06;100.00;99731.41;4985360;28;20223;-62
2023/05/22 04:52:10;;;;;;;19.10;17.13;;;;;;;16.28;100.00;99729.56;4999150;28;20341;-64
2023/05/22 04:54:36;;;;;;;17.03;15.50;;;;;;;16.49;100.00;99726.13;4992061;28;20187;-63
2023/05/22 04:57:03;;;;;;;17.27;15.63;;;;;;;16.64;100.00;99729.97;4994930;28;20263;-63
2023/05/22 04:59:30;;;;;;;17.60;15.90;;;;;;;16.58;100.00;99733.94;4995503;28;20206;-63
2023/05/22 05:01:55;;;;;;;17.23;15.60;;;;;;;16.70;100.00;99737.25;5014862;28;20237;-63
2023/05/22 05:04:21;;;;;;;17.77;16.17;;;;;;;17.02;100.00;99722.47;4997763;28;20639;-62
2023/05/22 05:06:46;;;;;;;17.10;15.60;;;;;;;17.17;100.00;99728.91;4994962;28;20179;-63
2023/05/22 05:09:11;;;;;;;17.37;15.67;;;;;;;17.46;100.00;99728.06;4994824;28;20238;-63
2023/05/22 05:11:36;;;;;;;16.10;14.50;;;;;;;17.68;100.00;99732.16;5009808;28;20222;-64
2023/05/22 05:14:02;;;;;;;18.60;16.77;;;;;;;17.95;100.00;99722.84;5001882;28;20183;-63
2023/05/22 05:16:27;;;;;;;17.37;15.27;;;;;;;18.20;100.00;99726.59;4994764;28;20207;-65
2023/05/22 05:18:52;;;;;;;17.27;15.67;;;;;;;18.36;100.00;99727.78;4995463;28;20191;-65
2023/05/22 05:21:18;;;;;;;16.93;15.43;;;;;;;18.61;100.00;99728.09;5005031;28;20222;-64
2023/05/22 05:23:43;;;;;;;17.30;15.47;;;;;;;18.84;100.00;99725.88;5007039;28;20183;-64
2023/05/22 05:26:09;;;;;;;15.93;14.53;;;;;;;19.04;100.00;99721.44;4995175;28;20210;-64
2023/05/22 05:28:36;;;;;;;17.20;15.17;;;;;;;19.09;100.00;99723.56;4995356;28;20690;-65
2023/05/22 05:31:01;;;;;;;15.93;14.53;;;;;;;19.19;100.00;99721.72;5000612;28;20226;-64
2023/05/22 05:33:26;;;;;;;16.40;14.80;;;;;;;19.39;100.00;99724.16;5011002;28;20205;-64
2023/05/22 05:35:52;;;;;;;16.23;14.83;;;;;;;19.54;100.00;99720.06;4993835;28;20187;-64
2023/05/22 05:38:18;;;;;;;16.87;15.27;;;;;;;19.62;100.00;99722.75;4994955;28;20203;-63
2023/05/22 05:40:44;;;;;;;16.10;14.60;;;;;;;19.71;100.00;99718.41;4995196;28;20230;-63
2023/05/22 05:43:09;;;;;;;16.00;14.53;;;;;;;19.62;100.00;99729.72;5015477;28;20196;-63
2023/05/22 05:45:35;;;;;;;20.27;14.97;;;;;;;19.84;100.00;99731.88;4994949;28;20187;-63
2023/05/22 05:48:00;;;;;;;18.67;16.37;;;;;;;19.98;100.00;99735.72;4994657;28;20191;-64
2023/05/22 05:50:25;;;;;;;16.80;15.27;;;;;;;19.84;100.00;99731.06;4990793;28;20228;-63
2023/05/22 05:52:51;;;;;;;16.27;14.67;;;;;;;19.86;100.00;99738.72;5020118;28;20262;-64
2023/05/22 05:55:16;;;;;;;18.47;16.67;;;;;;;20.03;100.00;99747.50;4984178;28;20184;-63
2023/05/22 05:57:41;;;;;;;16.27;14.77;;;;;;;20.46;100.00;99743.97;4983983;28;20611;-63
2023/05/22 06:00:09;;;;;;;16.47;14.97;;;;;;;20.62;100.00;99737.19;4985888;28;20190;-63
2023/05/22 06:02:36;;;;;;;16.97;15.47;;;;;;;20.56;100.00;99749.06;5024460;28;20183;-64
2023/05/22 06:05:04;;;;;;;17.70;15.90;;;;;;;20.69;100.00;99751.25;4994264;28;20175;-64
2023/05/22 06:07:29;;;;;;;17.50;15.07;;;;;;;21.17;100.00;99748.13;4994503;28;20191;-64
2023/05/22 06:09:54;;;;;;;17.13;15.70;;;;;;;21.49;100.00;99741.28;4994274;28;20286;-64
2023/05/22 06:12:20;;;;;;;17.00;15.27;;;;;;;21.67;100.00;99741.97;5010498;28;20226;-65
2023/05/22 06:14:45;;;;;;;16.47;14.97;;;;;;;21.59;100.00;99748.03;4993685;28;20213;-64
2023/05/22 06:17:10;;;;;;;16.80;14.60;;;;;;;22.17;100.00;99747.94;4994266;28;20294;-65
2023/05/22 06:19:36;;;;;;;16.17;14.53;;;;;;;22.42;100.00;99747.06;4993815;28;20222;-64
2023/05/22 06:22:01;;;;;;;16.20;14.33;;;;;;;22.15;100.00;99743.84;5005097;28;20231;-65
2023/05/22 06:24:26;;;;;;;16.37;14.67;;;;;;;22.31;100.00;99740.34;4989238;28;20211;-64
2023/05/22 06:26:52;;;;;;;15.23;13.70;;;;;;;22.49;100.00;99750.63;4985823;28;20179;-64
2023/05/22 06:29:17;;;;;;;14.80;13.50;;;;;;;23.00;100.00;99743.16;4993896;28;20222;-65
2023/05/22 06:31:42;;;;;;;13.87;12.43;;;;;;;23.59;100.00;99746.22;5010113;28;20222;-65
2023/05/22 06:34:07;;;;;;;13.47;12.27;;;;;;;24.21;97.96;99754.81;4999136;28;20187;-65
2023/05/22 06:36:33;;;;;;;13.73;12.50;;;;;;;24.43;95.38;99753.91;4993039;28;20278;-65
2023/05/22 06:38:59;;;;;;;13.98;11.82;;;;;;;24.55;90.29;99754.25;4993475;28;20266;-65
2023/05/22 06:41:25;;;;;;;12.50;11.43;;;;;;;25.17;86.91;99752.13;5003097;28;20230;-65
2023/05/22 06:43:50;;;;;;;12.75;10.95;;;;;;;25.11;86.40;99760.78;4985994;28;20641;-65
2023/05/22 06:46:16;;;;;;;12.25;11.13;;;;;;;25.26;84.64;99763.34;4987770;28;20234;-65
2023/05/22 06:48:41;;;;;;;12.05;10.95;;;;;;;25.60;81.72;99767.09;4993534;28;20740;-65
2023/05/22 06:51:08;;;;;;;13.18;11.23;;;;;;;25.66;83.65;99753.16;4998721;28;20222;-65
2023/05/22 06:53:34;;;;;;;12.27;11.18;;;;;;;26.52;76.38;99765.28;5004267;28;20218;-65
2023/05/22 06:55:59;;;;;;;15.90;11.45;;;;;;;26.83;71.25;99761.34;4982156;28;20184;-65
2023/05/22 06:58:25;;;;;;;11.32;10.23;;;;;;;27.20;63.86;99769.75;4980719;28;20184;-66
2023/05/22 07:00:50;;;;;;;14.13;9.40;;;;;;;26.51;64.03;99768.91;4968920;28;20721;-65
2023/05/22 07:03:16;;;;;;;11.50;9.98;;;;;;;26.69;66.23;99770.19;4987734;28;20643;-76
2023/05/22 07:05:41;;;;;;;13.18;9.95;;;;;;;26.89;61.70;99780.84;4986257;28;20190;-76
2023/05/22 07:08:07;;;;;;;10.40;9.48;;;;;;;26.08;65.65;99769.09;4993892;28;20635;-73
2023/05/22 07:10:32;;;;;;;14.77;10.63;;;;;;;25.92;70.05;99771.00;4980766;28;20237;-77
2023/05/22 07:12:58;;;;;;;14.13;10.27;;;;;;;25.58;76.22;99774.41;5004400;28;20235;-76
2023/05/22 07:15:23;;;;;;;12.10;9.52;;;;;;;25.81;74.13;99770.72;4983587;28;20348;-78
2023/05/22 07:17:48;;;;;;;12.55;11.30;;;;;;;25.65;73.32;99777.06;5005712;28;20254;-77
2023/05/22 07:20:16;;;;;;;11.18;10.10;;;;;;;25.59;75.93;99779.47;4986097;28;20266;-77
2023/05/22 07:22:42;;;;;;;11.40;10.07;;;;;;;26.24;69.55;99773.25;5021066;28;20180;-78
2023/05/22 07:25:07;;;;;;;14.95;11.35;;;;;;;26.46;68.52;99767.88;4991798;28;20195;-80
2023/05/22 07:27:33;;;;;;;11.98;10.88;;;;;;;27.17;62.00;99771.97;4994180;28;20300;-77
2023/05/22 07:29:58;;;;;;;13.68;11.60;;;;;;;27.69;59.79;99770.41;4991675;28;20211;-75
2023/05/22 07:32:23;;;;;;;11.88;10.32;;;;;;;27.43;61.69;99762.50;4976500;28;20687;-76
2023/05/22 07:34:49;;;;;;;18.92;10.95;;;;;;;27.52;60.59;99771.81;4993851;28;20187;-74
2023/05/22 07:37:14;;;;;;;13.20;10.27;;;;;;;27.47;60.23;99769.00;4992836;28;20609;-75
2023/05/22 07:39:39;;;;;;;12.90;11.05;;;;;;;28.02;56.82;99766.91;4992781;28;20179;-78
2023/05/22 07:42:05;;;;;;;18.60;10.55;;;;;;;28.01;57.41;99765.28;4995149;28;20234;-75
2023/05/22 07:44:31;;;;;;;11.60;10.15;;;;;;;28.40;55.24;99770.69;4993597;28;20191;-77
2023/05/22 07:46:56;;;;;;;11.80;10.55;;;;;;;28.34;54.57;99769.69;4992404;28;20187;-75
2023/05/22 07:49:22;;;;;;;17.58;10.23;;;;;;;28.60;52.47;99773.25;4991602;28;20257;-76
2023/05/22 07:51:48;;;;;;;12.15;9.60;;;;;;;28.71;53.01;99771.00;4970655;28;20226;-74
2023/05/22 07:54:14;;;;;;;11.20;9.75;;;;;;;27.52;58.54;99777.09;4972176;28;20658;-76
2023/05/22 07:56:40;;;;;;;13.68;10.10;;;;;;;27.08;64.10;99775.81;4973105;28;20180;-77
2023/05/22 07:59:06;;;;;;;12.27;11.07;;;;;;;26.99;61.84;99773.38;4973572;28;20176;-77
2023/05/22 08:01:32;;;;;;;17.00;9.55;;;;;;;27.27;62.25;99782.16;4976660;28;20276;-79
2023/05/22 08:03:57;;;;;;;14.98;10.30;;;;;;;28.09;56.37;99779.31;4996526;28;20215;-79
2023/05/22 08:06:22;;;;;;;15.88;9.88;;;;;;;28.07;56.39;99776.06;4993139;28;20218;-79
2023/05/22 08:08:49;;;;;;;13.38;9.38;;;;;;;27.14;61.01;99785.56;4987819;28;20227;-76
2023/05/22 08:11:14;;;;;;;10.18;8.88;;;;;;;27.53;59.28;99774.25;4993921;28;20315;-79
2023/05/22 08:13:39;;;;;;;10.07;8.93;;;;;;;27.68;60.11;99774.03;4997647;28;20210;-75
2023/05/22 08:16:05;;;;;;;10.90;9.80;;;;;;;27.09;60.26;99785.34;4992207;28;20207;-75
2023/05/22 08:18:31;;;;;;;11.30;8.88;;;;;;;26.89;63.44;99780.84;4992622;28;20282;-76
2023/05/22 08:20:56;;;;;;;11.63;10.57;;;;;;;26.98;62.10;99777.03;4995860;28;20253;-79
2023/05/22 08:23:22;;;;;;;11.73;9.73;;;;;;;26.79;65.21;99777.78;5009574;28;20179;-78
2023/05/22 08:25:48;;;;;;;11.95;9.32;;;;;;;26.21;67.54;99782.34;5008915;28;20229;-75
2023/05/22 08:28:14;;;;;;;11.98;9.68;;;;;;;26.44;67.04;99777.81;5010237;28;20218;-75
2023/05/22 08:30:39;;;;;;;17.13;9.88;;;;;;;26.65;64.85;99777.69;5004381;28;20261;-77
2023/05/22 08:33:04;;;;;;;10.65;8.95;;;;;;;27.58;59.84;99776.28;5010849;28;20205;-78
2023/05/22 08:35:30;;;;;;;10.40;9.18;;;;;;;27.47;58.12;99771.63;5011640;28;20657;-78
2023/05/22 08:37:55;;;;;;;12.38;9.40;;;;;;;26.96;59.83;99775.59;5010830;28;20178;-78
2023/05/22 08:40:23;;;;;;;13.85;11.75;;;;;;;27.10;59.82;99777.22;4997526;28;20209;-78
2023/05/22 08:42:53;;;;;;;11.77;9.77;;;;;;;27.38;57.03;99771.78;5017851;28;20190;-79
2023/05/22 08:45:18;;;;;;;10.65;9.55;;;;;;;27.49;56.46;99777.53;5005808;28;20191;-78
2023/05/22 08:47:50;;;;;;;11.27;9.20;;;;;;;27.64;54.48;99777.31;5006040;28;20633;-79
2023/05/22 08:50:16;;;;;;;9.98;9.07;;;;;;;27.74;57.00;99779.56;5002901;28;20218;-73
2023/05/22 08:52:49;;;;;;;22.25;10.00;;;;;;;29.06;49.57;99782.00;5010313;28;20225;-77
2023/05/22 08:55:14;;;;;;;11.38;10.15;;;;;;;29.16;47.65;99786.81;5011942;28;20200;-78
2023/05/22 08:57:41;;;;;;;16.35;10.52;;;;;;;29.37;46.51;99780.38;5011583;28;20191;-75
2023/05/22 09:00:07;;;;;;;10.95;9.82;;;;;;;30.13;43.16;99777.69;5002707;28;20565;-76
2023/05/22 09:02:32;;;;;;;10.45;9.57;;;;;;;29.65;45.16;99767.75;5026901;28;20183;-78
2023/05/22 09:05:00;;;;;;;11.15;9.90;;;;;;;30.80;45.47;99776.09;5011520;28;20622;-75
2023/05/22 09:07:26;;;;;;;10.48;9.23;;;;;;;31.80;42.62;99782.53;5011128;28;20206;-77
2023/05/22 09:09:52;;;;;;;10.20;9.30;;;;;;;32.07;38.74;99770.63;5012116;28;20308;-77
2023/05/22 09:12:17;;;;;;;10.18;9.13;;;;;;;32.04;37.29;99782.56;5017752;28;20673;-77
2023/05/22 09:14:43;;;;;;;10.15;9.18;;;;;;;32.51;38.81;99777.13;5006830;28;20190;-77
2023/05/22 09:17:13;;;;;;;10.88;9.88;;;;;;;31.19;38.60;99773.94;5012155;28;20215;-78
2023/05/22 09:19:43;;;;;;;9.55;8.65;;;;;;;33.26;37.34;99773.66;5013746;28;20183;-77
2023/05/22 09:22:08;;;;;;;9.32;8.43;;;;;;;34.76;33.03;99781.81;5019079;28;20236;-77
2023/05/22 09:24:39;;;;;;;9.65;8.82;;;;;;;33.63;35.24;99784.66;5011893;28;20274;-77
2023/05/22 09:27:08;;;;;;;10.27;9.15;;;;;;;33.22;34.81;99783.16;5025282;28;20211;-76
2023/05/22 09:29:48;;;;;;;10.20;9.38;;;;;;;33.45;35.20;99784.91;5015488;28;20536;-76
2023/05/22 09:32:14;;;;;;;14.70;9.43;;;;;;;32.57;35.71;99779.88;5017787;28;20230;-76
2023/05/22 09:34:39;;;;;;;10.68;8.55;;;;;;;32.63;37.93;99781.59;5008896;28;20182;-77
2023/05/22 09:37:05;;;;;;;12.85;9.90;;;;;;;32.51;36.76;99769.16;5015253;28;20653;-77
2023/05/22 09:40:04;;;;;;;14.05;9.65;;;;;;;31.98;39.67;99770.19;5014851;28;20187;-75
2023/05/22 09:42:31;;;;;;;11.15;9.82;;;;;;;32.44;39.70;99773.00;4981325;28;20215;-75
2023/05/22 09:45:02;;;;;;;12.00;9.82;;;;;;;33.11;37.73;99788.34;5012365;28;20622;-74
2023/05/22 09:47:27;;;;;;;10.85;9.80;;;;;;;32.19;40.44;99774.91;5015162;28;20260;-76
2023/05/22 09:49:56;;;;;;;12.70;10.50;;;;;;;32.92;36.88;99778.94;5014129;28;20669;-73
2023/05/22 09:52:23;;;;;;;10.02;9.18;;;;;;;34.30;35.23;99782.09;5019837;28;20234;-73
2023/05/22 09:54:54;;;;;;;10.60;9.50;;;;;;;35.94;32.90;99778.47;5012817;28;20186;-74
2023/05/22 09:57:21;;;;;;;13.05;9.52;;;;;;;37.15;30.36;99780.09;5013331;28;20241;-71
2023/05/22 09:59:57;;;;;;;11.30;9.32;;;;;;;37.19;30.25;99785.72;5014432;28;20197;-71
2023/05/22 10:02:25;;;;;;;17.38;9.15;;;;;;;36.28;29.96;99784.22;5007650;28;20697;-72
2023/05/22 10:04:51;;;;;;;11.23;8.48;;;;;;;36.05;30.97;99781.97;5014792;28;20182;-73
2023/05/22 10:07:20;;;;;;;10.80;9.70;;;;;;;34.23;32.58;99773.44;5013917;28;20187;-72
2023/05/22 10:09:51;;;;;;;11.15;8.98;;;;;;;33.61;34.28;99770.75;5012913;28;20269;-74
2023/05/22 10:12:20;;;;;;;11.02;9.35;;;;;;;33.33;34.90;99770.84;5019092;28;20229;-70
2023/05/22 10:14:46;;;;;;;15.95;10.32;;;;;;;33.61;36.14;99773.41;5013602;28;20183;-71
2023/05/22 10:17:12;;;;;;;10.20;9.30;;;;;;;33.91;35.21;99763.44;5005169;28;20218;-72
2023/05/22 10:19:39;;;;;;;12.45;9.77;;;;;;;33.59;35.47;99770.19;5014202;28;20181;-74
2023/05/22 10:22:05;;;;;;;11.07;9.75;;;;;;;33.66;35.99;99761.22;5014246;28;20328;-72
2023/05/22 10:24:30;;;;;;;10.88;9.82;;;;;;;33.58;35.15;99760.59;5014100;28;20261;-75
2023/05/22 10:26:56;;;;;;;11.73;9.60;;;;;;;33.30;35.52;99756.16;5013890;28;20178;-75
2023/05/22 10:29:29;;;;;;;14.18;10.63;;;;;;;32.80;37.29;99755.06;5013709;28;20244;-71
2023/05/22 10:32:06;;;;;;;13.00;11.85;;;;;;;31.55;38.13;99745.53;5004866;28;20676;-72
2023/05/22 10:34:41;;;;;;;12.48;10.60;;;;;;;29.61;46.83;99749.63;5006089;28;20197;-72
2023/05/22 10:37:44;;;;;;;12.32;11.07;;;;;;;28.66;51.70;99745.13;5012720;28;20213;-71
2023/05/22 10:40:12;;;;;;;12.38;11.05;;;;;;;29.40;52.42;99736.78;5003177;28;20187;-71
2023/05/22 10:42:37;;;;;;;11.32;10.13;;;;;;;29.54;51.74;99740.13;5012227;28;20266;-72
2023/05/22 10:45:06;;;;;;;12.48;10.55;;;;;;;29.28;51.87;99739.28;5010732;28;20191;-71
2023/05/22 10:47:32;;;;;;;11.55;10.43;;;;;;;29.08;52.44;99740.22;5012927;28;20182;-71
2023/05/22 10:50:08;;;;;;;10.82;9.80;;;;;;;29.54;52.93;99740.13;5012953;28;20242;-71
2023/05/22 10:52:34;;;;;;;12.25;11.10;;;;;;;29.25;51.69;99732.56;5001876;28;20237;-71
2023/05/22 10:55:00;;;;;;;13.90;11.07;;;;;;;28.80;52.01;99730.03;5012132;28;20260;-71
2023/05/22 10:57:30;;;;;;;16.70;11.15;;;;;;;28.93;50.18;99721.19;5011582;28;20662;-72
2023/05/22 11:00:06;;;;;;;14.68;11.18;;;;;;;28.72;51.87;99725.78;5011758;28;20191;-72
2023/05/22 11:02:37;;;;;;;11.60;10.40;;;;;;;29.05;51.00;99723.94;4987732;28;20342;-71
2023/05/22 11:05:17;;;;;;;12.25;10.95;;;;;;;28.88;51.62;99719.19;5006440;28;20183;-72
2023/05/22 11:07:42;;;;;;;11.85;10.68;;;;;;;29.21;50.52;99718.16;5023573;28;20195;-72
2023/05/22 11:10:08;;;;;;;10.07;9.18;;;;;;;29.50;59.50;99715.06;5001541;28;20252;-70
2023/05/22 11:12:33;;;;;;;12.02;10.60;;;;;;;29.58;53.31;99714.78;5021998;28;20233;-71
2023/05/22 11:15:01;;;;;;;11.27;10.18;;;;;;;29.14;47.16;99709.44;5012191;28;20192;-71